createdAt,value
2024-02-17T00:02:00.399Z,16.80
2024-02-17T00:05:04.238Z,17.42
2024-02-17T00:08:10.493Z,16.67
2024-02-17T00:11:16.762Z,17.63
2024-02-17T00:14:19.547Z,18.77
2024-02-17T00:17:25.287Z,17.65
2024-02-17T00:20:27.880Z,19.05
2024-02-17T00:23:32.681Z,21.40
2024-02-17T00:26:41.374Z,18.70
2024-02-17T00:29:44.203Z,20.00
2024-02-17T00:32:54.185Z,18.98
2024-02-17T00:35:58.774Z,21.45
2024-02-17T00:39:01.710Z,21.27
2024-02-17T00:42:04.511Z,21.77
2024-02-17T00:45:07.718Z,19.50
2024-02-17T00:48:10.356Z,20.80
2024-02-17T00:51:16.047Z,21.35
2024-02-17T00:54:18.912Z,21.15
2024-02-17T00:57:21.590Z,19.98
2024-02-17T01:00:24.858Z,21.47
2024-02-17T01:03:27.606Z,21.10
2024-02-17T01:06:30.686Z,20.52
2024-02-17T01:09:33.362Z,20.17
2024-02-17T01:12:36.851Z,19.95
2024-02-17T01:15:39.632Z,20.27
2024-02-17T01:18:42.732Z,20.60
2024-02-17T01:21:45.384Z,21.58
2024-02-17T01:24:48.414Z,20.70
2024-02-17T01:27:51.201Z,19.38
2024-02-17T01:30:53.904Z,19.53
2024-02-17T01:33:57.124Z,21.55
2024-02-17T01:36:59.565Z,20.70
2024-02-17T01:40:08.472Z,20.15
2024-02-17T01:43:15.143Z,20.45
2024-02-17T01:46:19.022Z,21.47
2024-02-17T01:49:25.015Z,20.50
2024-02-17T01:52:31.390Z,21.45
2024-02-17T01:55:35.388Z,20.92
2024-02-17T01:58:38.419Z,21.33
2024-02-17T02:01:45.092Z,20.67
2024-02-17T02:04:48.728Z,20.77
2024-02-17T02:07:51.279Z,20.98
2024-02-17T02:10:56.372Z,20.55
2024-02-17T02:14:14.726Z,20.08
2024-02-17T02:17:19.636Z,19.83
2024-02-17T02:20:22.959Z,20.80
2024-02-17T02:23:25.710Z,19.08
2024-02-17T02:26:28.096Z,19.48
2024-02-17T02:29:30.700Z,19.85
2024-02-17T02:32:33.060Z,20.87
2024-02-17T02:35:35.431Z,20.38
2024-02-17T02:38:39.111Z,21.42
2024-02-17T02:41:42.098Z,21.00
2024-02-17T02:44:45.154Z,20.35
2024-02-17T02:47:48.886Z,19.27
2024-02-17T02:50:52.132Z,21.55
2024-02-17T02:54:04.458Z,21.98
2024-02-17T02:57:07.644Z,21.92
2024-02-17T03:00:11.118Z,20.65
2024-02-17T03:03:14.849Z,20.73
2024-02-17T03:06:17.527Z,21.35
2024-02-17T03:09:20.788Z,22.83
2024-02-17T03:12:24.416Z,22.70
2024-02-17T03:15:28.006Z,21.77
2024-02-17T03:18:31.085Z,22.50
2024-02-17T03:21:37.649Z,21.73
2024-02-17T03:24:41.355Z,21.15
2024-02-17T03:27:43.890Z,20.98
2024-02-17T03:30:47.918Z,21.73
2024-02-17T03:33:52.074Z,19.87
2024-02-17T03:36:55.610Z,19.92
2024-02-17T03:39:58.209Z,20.55
2024-02-17T03:43:00.679Z,21.00
2024-02-17T03:46:03.020Z,20.55
2024-02-17T03:49:05.555Z,20.47
2024-02-17T03:52:09.169Z,18.75
2024-02-17T03:55:12.337Z,20.00
2024-02-17T03:58:15.432Z,20.20
2024-02-17T04:01:18.978Z,20.02
2024-02-17T04:05:00.960Z,21.13
2024-02-17T04:08:33.631Z,20.13
2024-02-17T04:11:40.096Z,19.23
2024-02-17T04:14:44.916Z,19.88
2024-02-17T04:17:47.551Z,19.38
2024-02-17T04:20:50.435Z,19.53
2024-02-17T04:23:52.899Z,18.83
2024-02-17T04:26:57.406Z,20.35
2024-02-17T04:30:04.104Z,19.25
2024-02-17T04:33:07.525Z,20.30
2024-02-17T04:36:13.018Z,18.70
2024-02-17T04:39:16.367Z,20.17
2024-02-17T04:42:19.296Z,20.83
2024-02-17T04:45:22.642Z,20.52
2024-02-17T04:48:26.166Z,20.65
2024-02-17T04:51:28.968Z,20.53
2024-02-17T04:54:32.276Z,19.30
2024-02-17T04:57:35.036Z,18.92
2024-02-17T05:00:37.982Z,20.00
2024-02-17T05:03:41.261Z,19.15
2024-02-17T05:06:48.753Z,20.27
2024-02-17T05:09:51.501Z,18.55
2024-02-17T05:12:54.111Z,19.88
2024-02-17T05:15:58.051Z,19.63
2024-02-17T05:19:00.979Z,19.27
2024-02-17T05:22:04.998Z,19.87
2024-02-17T05:25:07.470Z,19.63
2024-02-17T05:28:10.124Z,19.58
2024-02-17T05:31:29.827Z,18.85
2024-02-17T05:34:32.457Z,18.70
2024-02-17T05:37:35.003Z,18.63
2024-02-17T05:40:38.900Z,16.63
2024-02-17T05:43:41.469Z,19.20
2024-02-17T05:46:44.345Z,20.15
2024-02-17T05:49:47.465Z,20.77
2024-02-17T05:52:51.022Z,20.37
2024-02-17T05:55:53.362Z,19.80
2024-02-17T05:58:58.067Z,18.98
2024-02-17T06:02:00.459Z,20.33
2024-02-17T06:05:04.234Z,19.73
2024-02-17T06:08:07.311Z,19.33
2024-02-17T06:11:09.666Z,20.33
2024-02-17T06:14:11.998Z,20.55
2024-02-17T06:17:23.934Z,20.95
2024-02-17T06:20:45.173Z,19.08
2024-02-17T06:23:49.225Z,19.60
2024-02-17T06:26:52.068Z,20.00
2024-02-17T06:29:54.799Z,21.88
2024-02-17T06:33:02.265Z,19.90
2024-02-17T06:36:13.891Z,20.08
2024-02-17T06:39:27.604Z,19.77
2024-02-17T06:42:30.246Z,20.60
2024-02-17T06:45:39.698Z,21.00
2024-02-17T06:48:45.199Z,21.48
2024-02-17T06:51:51.141Z,20.67
2024-02-17T06:55:18.560Z,20.03
2024-02-17T07:02:28.092Z,20.65
2024-02-17T07:05:38.637Z,21.90
2024-02-17T07:08:55.188Z,19.85
2024-02-17T07:12:08.725Z,21.73
2024-02-17T07:15:27.291Z,20.75
2024-02-17T07:18:30.838Z,20.42
2024-02-17T07:21:40.817Z,19.98
2024-02-17T07:24:49.733Z,21.98
2024-02-17T07:27:59.426Z,20.80
2024-02-17T07:31:02.267Z,22.08
2024-02-17T07:34:05.096Z,20.23
2024-02-17T07:37:07.876Z,21.17
2024-02-17T07:40:15.760Z,21.73
2024-02-17T07:43:24.175Z,21.77
2024-02-17T07:46:37.373Z,21.77
2024-02-17T07:49:45.100Z,21.45
2024-02-17T07:52:47.697Z,21.98
2024-02-17T07:55:54.382Z,20.85
2024-02-17T07:59:07.456Z,20.90
2024-02-17T08:02:11.169Z,20.80
2024-02-17T08:05:25.403Z,21.48
2024-02-17T08:08:31.853Z,20.73
2024-02-17T08:11:36.847Z,20.35
2024-02-17T08:14:57.522Z,20.20
2024-02-17T08:18:03.211Z,20.48
2024-02-17T08:21:06.244Z,20.33
2024-02-17T08:24:11.581Z,19.13
2024-02-17T08:27:17.727Z,20.45
2024-02-17T08:30:20.756Z,19.63
2024-02-17T08:33:23.267Z,21.00
2024-02-17T08:36:25.736Z,19.80
2024-02-17T08:39:29.664Z,19.80
2024-02-17T08:42:32.213Z,19.92
2024-02-17T08:45:40.604Z,20.17
2024-02-17T08:48:43.255Z,19.15
2024-02-17T08:51:45.761Z,19.75
2024-02-17T08:54:48.200Z,18.50
2024-02-17T08:57:50.502Z,18.90
2024-02-17T09:00:54.331Z,17.73
2024-02-17T09:03:57.089Z,17.92
2024-02-17T09:07:01.089Z,17.02
2024-02-17T09:10:04.796Z,16.92
2024-02-17T09:13:08.957Z,16.15
2024-02-17T09:16:11.414Z,16.97
2024-02-17T09:19:14.128Z,15.88
2024-02-17T09:22:18.279Z,15.70
2024-02-17T09:25:21.347Z,18.58
2024-02-17T09:28:24.166Z,17.45
2024-02-17T09:31:26.584Z,18.60
2024-02-17T09:34:31.179Z,18.25
2024-02-17T09:37:33.763Z,18.33
2024-02-17T09:40:36.481Z,19.15
2024-02-17T09:43:39.438Z,19.65
2024-02-17T09:46:42.104Z,19.60
2024-02-17T09:49:44.988Z,16.92
2024-02-17T09:52:51.755Z,17.45
2024-02-17T09:55:54.277Z,16.73
2024-02-17T09:58:57.256Z,17.42
2024-02-17T10:02:00.009Z,17.03
2024-02-17T10:05:04.042Z,17.15
2024-02-17T10:08:08.109Z,16.05
2024-02-17T10:11:13.373Z,17.85
2024-02-17T10:14:17.858Z,17.23
2024-02-17T10:17:24.134Z,16.20
2024-02-17T10:20:26.823Z,14.77
2024-02-17T10:23:29.130Z,16.15
2024-02-17T10:26:31.558Z,17.63
2024-02-17T10:29:33.929Z,17.35
2024-02-17T10:32:37.123Z,15.30
2024-02-17T10:35:44.353Z,15.88
2024-02-17T10:38:47.552Z,16.98
2024-02-17T10:41:50.112Z,16.00
2024-02-17T10:44:52.514Z,15.93
2024-02-17T10:48:06.900Z,15.27
2024-02-17T10:51:10.139Z,16.63
2024-02-17T10:54:17.950Z,12.25
2024-02-17T10:57:24.020Z,12.13
2024-02-17T11:00:27.049Z,11.65
2024-02-17T11:03:37.960Z,10.60
2024-02-17T11:06:44.407Z,11.10
2024-02-17T11:09:47.403Z,12.45
2024-02-17T11:12:51.508Z,12.57
2024-02-17T11:16:06.261Z,12.52
2024-02-17T11:19:13.080Z,11.90
2024-02-17T11:22:18.649Z,13.60
2024-02-17T11:25:35.865Z,12.65
2024-02-17T11:28:38.772Z,11.65
2024-02-17T11:31:43.226Z,12.23
2024-02-17T11:34:47.931Z,13.27
2024-02-17T11:37:55.156Z,13.82
2024-02-17T11:40:59.567Z,13.63
2024-02-17T11:44:02.432Z,13.98
2024-02-17T11:47:05.003Z,12.85
2024-02-17T11:50:12.729Z,14.00
2024-02-17T11:53:16.179Z,13.48
2024-02-17T11:56:19.136Z,13.65
2024-02-17T11:59:22.411Z,13.70
2024-02-17T12:02:25.392Z,15.55
2024-02-17T12:05:28.052Z,14.77
2024-02-17T12:08:32.189Z,14.57
2024-02-17T12:11:36.577Z,14.73
2024-02-17T12:14:39.123Z,15.02
2024-02-17T12:17:46.123Z,14.05
2024-02-17T12:20:51.782Z,14.50
2024-02-17T12:23:59.004Z,14.13
2024-02-17T12:27:02.026Z,14.73
2024-02-17T12:30:08.113Z,14.15
2024-02-17T12:33:11.896Z,13.75
2024-02-17T12:36:23.847Z,14.07
2024-02-17T12:39:27.650Z,13.32
2024-02-17T12:42:30.898Z,15.02
2024-02-17T12:45:34.225Z,13.52
2024-02-17T12:48:40.438Z,13.52
2024-02-17T12:51:48.945Z,13.70
2024-02-17T12:54:51.914Z,13.27
2024-02-17T12:57:55.196Z,13.73
2024-02-17T13:01:00.405Z,14.48
2024-02-17T13:04:03.196Z,14.55
2024-02-17T13:07:06.085Z,13.53
2024-02-17T13:10:10.443Z,12.80
2024-02-17T13:13:12.888Z,14.38
2024-02-17T13:16:16.617Z,14.02
2024-02-17T13:19:20.033Z,13.98
2024-02-17T13:22:24.796Z,13.47
2024-02-17T13:25:27.320Z,14.25
2024-02-17T13:28:31.315Z,13.75
2024-02-17T13:31:35.310Z,10.80
2024-02-17T13:34:40.424Z,12.13
2024-02-17T13:37:46.669Z,11.27
2024-02-17T13:40:56.957Z,12.43
2024-02-17T13:44:09.960Z,11.05
2024-02-17T13:47:15.650Z,10.85
2024-02-17T13:50:18.171Z,10.73
2024-02-17T13:53:21.134Z,10.87
2024-02-17T13:56:28.220Z,10.95
2024-02-17T13:59:38.958Z,11.43
2024-02-17T14:02:43.916Z,11.23
2024-02-17T14:05:47.062Z,11.57
2024-02-17T14:08:59.841Z,11.13
2024-02-17T14:12:05.575Z,11.68
2024-02-17T14:15:09.669Z,12.35
2024-02-17T14:18:16.115Z,11.90
2024-02-17T14:21:21.060Z,12.27
2024-02-17T14:24:24.110Z,12.97
2024-02-17T14:27:29.305Z,13.05
2024-02-17T14:30:38.361Z,12.57
2024-02-17T14:33:49.742Z,12.48
2024-02-17T14:36:53.038Z,13.30
2024-02-17T14:39:59.604Z,13.03
2024-02-17T14:43:02.602Z,12.05
2024-02-17T14:46:05.566Z,12.43
2024-02-17T14:49:08.814Z,12.52
2024-02-17T14:52:11.847Z,12.80
2024-02-17T14:55:14.737Z,12.23
2024-02-17T14:58:17.374Z,13.02
2024-02-17T15:01:20.154Z,12.38
2024-02-17T15:04:22.923Z,13.23
2024-02-17T15:07:25.552Z,12.63
2024-02-17T15:10:31.728Z,11.80
2024-02-17T15:13:35.417Z,13.15
2024-02-17T15:16:39.714Z,13.00
2024-02-17T15:19:43.290Z,12.73
2024-02-17T15:22:47.180Z,12.43
2024-02-17T15:25:49.860Z,12.10
2024-02-17T15:28:52.921Z,12.20
2024-02-17T15:31:56.199Z,13.13
2024-02-17T15:34:59.627Z,13.73
2024-02-17T15:38:07.592Z,13.10
2024-02-17T15:41:11.268Z,13.63
2024-02-17T15:44:14.257Z,12.65
2024-02-17T15:47:16.597Z,13.43
2024-02-17T15:50:19.059Z,12.27
2024-02-17T15:53:29.007Z,13.35
2024-02-17T15:56:31.570Z,13.07
2024-02-17T15:59:34.424Z,13.13
2024-02-17T16:02:37.956Z,13.32
2024-02-17T16:05:40.744Z,12.88
2024-02-17T16:08:43.138Z,13.93
2024-02-17T16:11:47.558Z,13.53
2024-02-17T16:14:50.022Z,13.23
2024-02-17T16:17:54.612Z,12.63
2024-02-17T16:21:03.492Z,13.18
2024-02-17T16:24:09.045Z,12.60
2024-02-17T16:27:12.183Z,13.20
2024-02-17T16:30:14.782Z,13.55
2024-02-17T16:33:17.591Z,13.68
2024-02-17T16:36:20.172Z,12.85
2024-02-17T16:39:22.982Z,13.45
2024-02-17T16:42:26.863Z,12.47
2024-02-17T16:45:33.945Z,13.18
2024-02-17T16:48:37.972Z,12.07
2024-02-17T16:51:44.708Z,13.23
2024-02-17T16:54:48.370Z,13.98
2024-02-17T16:57:51.033Z,14.07
2024-02-17T17:00:53.644Z,13.82
2024-02-17T17:03:56.508Z,14.35
2024-02-17T17:07:09.074Z,13.50
2024-02-17T17:10:11.877Z,12.98
2024-02-17T17:13:17.500Z,12.77
2024-02-17T17:16:19.783Z,14.30
2024-02-17T17:19:23.013Z,13.07
2024-02-17T17:22:38.854Z,14.13
2024-02-17T17:25:46.339Z,13.23
2024-02-17T17:28:50.295Z,13.60
2024-02-17T17:31:53.463Z,14.82
2024-02-17T17:34:56.378Z,14.90
2024-02-17T17:38:08.330Z,14.10
2024-02-17T17:41:10.773Z,14.40
2024-02-17T17:44:17.541Z,14.20
2024-02-17T17:47:21.326Z,15.13
2024-02-17T17:50:25.332Z,14.00
2024-02-17T17:53:35.777Z,14.48
2024-02-17T17:56:44.476Z,14.85
2024-02-17T17:59:58.705Z,14.37
2024-02-17T18:03:03.717Z,14.73
2024-02-17T18:06:31.467Z,14.98
2024-02-17T18:09:51.359Z,13.75
2024-02-17T18:12:55.229Z,13.65
2024-02-17T18:16:02.279Z,12.70
2024-02-17T18:19:06.874Z,13.50
2024-02-17T18:22:12.116Z,12.65
2024-02-17T18:25:18.978Z,13.10
2024-02-17T18:28:21.786Z,13.30
2024-02-17T18:31:23.994Z,12.90
2024-02-17T18:34:30.644Z,12.02
2024-02-17T18:37:38.859Z,13.68
2024-02-17T18:40:44.195Z,12.45
2024-02-17T18:43:47.165Z,13.02
2024-02-17T18:46:59.083Z,12.33
2024-02-17T18:50:02.436Z,12.98
2024-02-17T18:53:05.751Z,13.68
2024-02-17T18:56:10.945Z,13.13
2024-02-17T18:59:19.318Z,13.93
2024-02-17T19:02:31.230Z,12.20
2024-02-17T19:05:44.196Z,13.02
2024-02-17T19:09:01.461Z,12.77
2024-02-17T19:12:04.680Z,13.40
2024-02-17T19:15:07.856Z,12.70
2024-02-17T19:18:10.668Z,13.40
2024-02-17T19:21:16.352Z,12.60
2024-02-17T19:24:19.165Z,13.27
2024-02-17T19:27:21.950Z,13.70
2024-02-17T19:30:25.462Z,13.23
2024-02-17T19:33:29.276Z,13.37
2024-02-17T19:36:31.760Z,12.75
2024-02-17T19:39:35.990Z,13.40
2024-02-17T19:42:38.325Z,12.98
2024-02-17T19:45:40.469Z,12.55
2024-02-17T19:48:42.898Z,12.97
2024-02-17T19:51:46.557Z,12.25
2024-02-17T19:54:50.546Z,12.38
2024-02-17T19:57:55.494Z,13.23
2024-02-17T20:00:58.644Z,12.77
2024-02-17T20:04:01.132Z,12.80
2024-02-17T20:07:03.724Z,13.00
2024-02-17T20:10:09.508Z,14.68
2024-02-17T20:13:12.107Z,13.23
2024-02-17T20:16:14.626Z,13.93
2024-02-17T20:19:18.100Z,12.87
2024-02-17T20:22:24.338Z,12.48
2024-02-17T20:25:31.715Z,13.07
2024-02-17T20:28:34.273Z,13.10
2024-02-17T20:31:36.919Z,13.65
2024-02-17T20:34:39.585Z,12.43
2024-02-17T20:37:42.092Z,12.02
2024-02-17T20:40:44.502Z,12.32
2024-02-17T20:43:47.199Z,12.25
2024-02-17T20:46:50.572Z,12.18
2024-02-17T20:49:54.379Z,12.00
2024-02-17T20:52:59.493Z,13.35
2024-02-17T20:56:09.738Z,13.43
2024-02-17T20:59:22.019Z,12.27
2024-02-17T21:06:10.365Z,12.23
2024-02-17T21:09:13.291Z,12.25
2024-02-17T21:12:15.805Z,13.88
2024-02-17T21:15:21.733Z,12.55
2024-02-17T21:18:24.956Z,11.10
2024-02-17T21:21:30.659Z,10.77
2024-02-17T21:24:36.102Z,11.63
2024-02-17T21:27:38.691Z,11.85
2024-02-17T21:30:42.633Z,12.13
2024-02-17T21:33:45.966Z,12.10
2024-02-17T21:37:24.593Z,11.30
2024-02-17T21:40:45.184Z,13.32
2024-02-17T21:43:54.896Z,12.38
2024-02-17T21:46:57.754Z,12.18
2024-02-17T21:50:08.019Z,13.45
2024-02-17T21:53:13.629Z,12.87
2024-02-17T22:03:55.011Z,12.93
2024-02-17T22:07:10.655Z,12.68
2024-02-17T22:10:13.792Z,12.43
2024-02-17T22:13:24.040Z,12.82
2024-02-17T22:16:35.794Z,11.43
2024-02-17T22:19:43.520Z,11.88
2024-02-17T22:22:48.106Z,11.90
2024-02-17T22:25:54.693Z,12.17
2024-02-17T22:29:00.704Z,11.98
2024-02-17T22:32:05.764Z,12.95
2024-02-17T22:35:10.170Z,11.88
2024-02-17T22:38:20.159Z,12.70
2024-02-17T22:41:23.346Z,11.83
2024-02-17T22:44:27.182Z,12.00
2024-02-17T22:47:40.668Z,11.65
2024-02-17T22:50:43.714Z,10.82
2024-02-17T22:54:10.471Z,10.98
2024-02-17T22:57:29.332Z,9.63
2024-02-17T23:00:32.954Z,10.27
2024-02-17T23:03:35.513Z,10.18
2024-02-17T23:06:54.225Z,9.95
2024-02-17T23:09:58.830Z,10.18
2024-02-17T23:13:02.336Z,10.40
2024-02-17T23:16:13.120Z,10.25
2024-02-17T23:19:22.873Z,10.80
2024-02-17T23:22:31.929Z,9.77
2024-02-17T23:25:39.507Z,9.90
2024-02-17T23:28:42.579Z,9.40
2024-02-17T23:31:45.861Z,10.38
2024-02-17T23:34:49.301Z,10.30
2024-02-17T23:37:52.507Z,11.15
2024-02-17T23:41:01.834Z,10.88
2024-02-17T23:44:05.961Z,11.13
2024-02-17T23:47:09.949Z,11.65
2024-02-17T23:50:14.943Z,12.02
2024-02-17T23:53:20.985Z,12.13
2024-02-17T23:56:26.930Z,11.82
2024-02-17T23:59:31.842Z,12.53
